sensor_id;sensor_type;location;lat;lon;timestamp;temperature;humidity
26254;DHT22;53339;51.378;0.094;2023-07-30T00:02:09;16.40;74.00
26254;DHT22;53339;51.378;0.094;2023-07-30T00:04:41;16.40;74.10
26254;DHT22;53339;51.378;0.094;2023-07-30T00:07:14;16.40;74.20
26254;DHT22;53339;51.378;0.094;2023-07-30T00:09:48;16.40;74.40
26254;DHT22;53339;51.378;0.094;2023-07-30T00:12:16;16.40;74.50
26254;DHT22;53339;51.378;0.094;2023-07-30T00:14:46;16.30;74.70
26254;DHT22;53339;51.378;0.094;2023-07-30T00:17:14;16.30;75.00
26254;DHT22;53339;51.378;0.094;2023-07-30T00:19:46;16.20;75.30
26254;DHT22;53339;51.378;0.094;2023-07-30T00:22:17;16.20;75.60
26254;DHT22;53339;51.378;0.094;2023-07-30T00:25:17;16.20;75.90
26254;DHT22;53339;51.378;0.094;2023-07-30T00:27:50;16.20;76.40
26254;DHT22;53339;51.378;0.094;2023-07-30T00:30:25;16.10;76.50
26254;DHT22;53339;51.378;0.094;2023-07-30T00:32:54;16.20;76.60
26254;DHT22;53339;51.378;0.094;2023-07-30T00:35:27;16.20;76.60
26254;DHT22;53339;51.378;0.094;2023-07-30T00:38:11;16.30;76.50
26254;DHT22;53339;51.378;0.094;2023-07-30T00:40:53;16.30;76.50
26254;DHT22;53339;51.378;0.094;2023-07-30T00:43:24;16.40;76.50
26254;DHT22;53339;51.378;0.094;2023-07-30T00:46:04;16.40;76.50
26254;DHT22;53339;51.378;0.094;2023-07-30T00:48:39;16.40;76.50
26254;DHT22;53339;51.378;0.094;2023-07-30T00:51:24;16.40;76.50
26254;DHT22;53339;51.378;0.094;2023-07-30T00:54:01;16.50;76.50
26254;DHT22;53339;51.378;0.094;2023-07-30T00:56:35;16.50;76.60
26254;DHT22;53339;51.378;0.094;2023-07-30T00:59:13;16.50;76.80
26254;DHT22;53339;51.378;0.094;2023-07-30T01:01:48;16.60;76.80
26254;DHT22;53339;51.378;0.094;2023-07-30T01:04:41;16.60;76.80
26254;DHT22;53339;51.378;0.094;2023-07-30T01:07:18;16.60;76.90
26254;DHT22;53339;51.378;0.094;2023-07-30T01:09:55;16.50;76.80
26254;DHT22;53339;51.378;0.094;2023-07-30T01:12:31;16.50;76.80
26254;DHT22;53339;51.378;0.094;2023-07-30T01:15:16;16.50;76.70
26254;DHT22;53339;51.378;0.094;2023-07-30T01:17:51;16.50;76.80
26254;DHT22;53339;51.378;0.094;2023-07-30T01:20:24;16.50;76.80
26254;DHT22;53339;51.378;0.094;2023-07-30T01:22:53;16.50;76.80
26254;DHT22;53339;51.378;0.094;2023-07-30T01:25:25;16.50;76.90
26254;DHT22;53339;51.378;0.094;2023-07-30T01:28:01;16.50;76.80
26254;DHT22;53339;51.378;0.094;2023-07-30T01:30:41;16.50;76.80
26254;DHT22;53339;51.378;0.094;2023-07-30T01:33:18;16.40;76.80
26254;DHT22;53339;51.378;0.094;2023-07-30T01:35:46;16.50;76.80
26254;DHT22;53339;51.378;0.094;2023-07-30T01:38:18;16.50;77.00
26254;DHT22;53339;51.378;0.094;2023-07-30T01:40:51;16.40;76.90
26254;DHT22;53339;51.378;0.094;2023-07-30T01:43:42;16.40;76.80
26254;DHT22;53339;51.378;0.094;2023-07-30T01:46:12;16.30;76.90
26254;DHT22;53339;51.378;0.094;2023-07-30T01:48:43;16.30;77.00
26254;DHT22;53339;51.378;0.094;2023-07-30T01:51:17;16.20;77.10
26254;DHT22;53339;51.378;0.094;2023-07-30T01:53:48;16.20;77.10
26254;DHT22;53339;51.378;0.094;2023-07-30T01:56:24;16.10;77.10
26254;DHT22;53339;51.378;0.094;2023-07-30T01:58:53;16.10;77.30
26254;DHT22;53339;51.378;0.094;2023-07-30T02:01:23;16.10;77.20
26254;DHT22;53339;51.378;0.094;2023-07-30T02:03:53;16.10;77.20
26254;DHT22;53339;51.378;0.094;2023-07-30T02:06:29;16.10;77.20
26254;DHT22;53339;51.378;0.094;2023-07-30T02:09:17;16.00;77.10
26254;DHT22;53339;51.378;0.094;2023-07-30T02:11:47;16.00;77.10
26254;DHT22;53339;51.378;0.094;2023-07-30T02:14:26;16.00;77.10
26254;DHT22;53339;51.378;0.094;2023-07-30T02:17:04;16.00;77.20
26254;DHT22;53339;51.378;0.094;2023-07-30T02:19:44;16.10;77.10
26254;DHT22;53339;51.378;0.094;2023-07-30T02:22:16;16.10;76.90
26254;DHT22;53339;51.378;0.094;2023-07-30T02:24:45;16.10;76.90
26254;DHT22;53339;51.378;0.094;2023-07-30T02:27:22;16.10;76.80
26254;DHT22;53339;51.378;0.094;2023-07-30T02:29:58;16.10;76.80
26254;DHT22;53339;51.378;0.094;2023-07-30T02:32:31;16.10;76.80
26254;DHT22;53339;51.378;0.094;2023-07-30T02:35:11;16.10;76.70
26254;DHT22;53339;51.378;0.094;2023-07-30T02:37:44;16.10;76.60
26254;DHT22;53339;51.378;0.094;2023-07-30T02:40:18;16.10;76.40
26254;DHT22;53339;51.378;0.094;2023-07-30T02:42:48;16.10;76.20
26254;DHT22;53339;51.378;0.094;2023-07-30T02:45:21;16.10;76.20
26254;DHT22;53339;51.378;0.094;2023-07-30T02:47:54;16.10;75.90
26254;DHT22;53339;51.378;0.094;2023-07-30T02:50:25;16.20;75.80
26254;DHT22;53339;51.378;0.094;2023-07-30T02:52:54;16.20;75.80
26254;DHT22;53339;51.378;0.094;2023-07-30T02:55:23;16.20;75.80
26254;DHT22;53339;51.378;0.094;2023-07-30T02:57:56;16.20;75.80
26254;DHT22;53339;51.378;0.094;2023-07-30T03:00:32;16.30;75.90
26254;DHT22;53339;51.378;0.094;2023-07-30T03:03:00;16.30;75.40
26254;DHT22;53339;51.378;0.094;2023-07-30T03:05:30;16.30;75.40
26254;DHT22;53339;51.378;0.094;2023-07-30T03:08:01;16.30;75.30
26254;DHT22;53339;51.378;0.094;2023-07-30T03:10:32;16.40;75.20
26254;DHT22;53339;51.378;0.094;2023-07-30T03:13:04;16.30;74.80
26254;DHT22;53339;51.378;0.094;2023-07-30T03:15:43;16.30;74.80
26254;DHT22;53339;51.378;0.094;2023-07-30T03:18:26;16.40;74.80
26254;DHT22;53339;51.378;0.094;2023-07-30T03:21:03;16.40;74.70
26254;DHT22;53339;51.378;0.094;2023-07-30T03:23:37;16.40;74.60
26254;DHT22;53339;51.378;0.094;2023-07-30T03:26:09;16.40;74.40
26254;DHT22;53339;51.378;0.094;2023-07-30T03:28:44;16.40;74.30
26254;DHT22;53339;51.378;0.094;2023-07-30T03:31:21;16.40;74.50
26254;DHT22;53339;51.378;0.094;2023-07-30T03:33:50;16.40;74.40
26254;DHT22;53339;51.378;0.094;2023-07-30T03:36:22;16.40;74.60
26254;DHT22;53339;51.378;0.094;2023-07-30T03:38:54;16.30;74.50
26254;DHT22;53339;51.378;0.094;2023-07-30T03:41:30;16.30;74.60
26254;DHT22;53339;51.378;0.094;2023-07-30T03:44:02;16.30;74.60
26254;DHT22;53339;51.378;0.094;2023-07-30T03:46:37;16.20;74.80
26254;DHT22;53339;51.378;0.094;2023-07-30T03:49:07;16.20;74.80
26254;DHT22;53339;51.378;0.094;2023-07-30T03:51:44;16.20;74.90
26254;DHT22;53339;51.378;0.094;2023-07-30T03:54:12;16.20;74.90
26254;DHT22;53339;51.378;0.094;2023-07-30T03:56:41;16.20;74.90
26254;DHT22;53339;51.378;0.094;2023-07-30T03:59:18;16.20;74.80
26254;DHT22;53339;51.378;0.094;2023-07-30T04:01:57;16.10;74.80
26254;DHT22;53339;51.378;0.094;2023-07-30T04:04:29;16.10;74.90
26254;DHT22;53339;51.378;0.094;2023-07-30T04:07:00;16.10;74.90
26254;DHT22;53339;51.378;0.094;2023-07-30T04:09:35;16.00;75.10
26254;DHT22;53339;51.378;0.094;2023-07-30T04:12:08;15.90;74.90
26254;DHT22;53339;51.378;0.094;2023-07-30T04:14:44;15.90;74.90
26254;DHT22;53339;51.378;0.094;2023-07-30T04:17:18;15.90;75.00
26254;DHT22;53339;51.378;0.094;2023-07-30T04:19:51;15.80;75.00
26254;DHT22;53339;51.378;0.094;2023-07-30T04:22:21;15.70;75.20
26254;DHT22;53339;51.378;0.094;2023-07-30T04:24:54;15.70;75.20
26254;DHT22;53339;51.378;0.094;2023-07-30T04:27:39;15.70;75.30
26254;DHT22;53339;51.378;0.094;2023-07-30T04:30:18;15.60;75.40
26254;DHT22;53339;51.378;0.094;2023-07-30T04:32:57;15.60;75.60
26254;DHT22;53339;51.378;0.094;2023-07-30T04:35:29;15.50;75.70
26254;DHT22;53339;51.378;0.094;2023-07-30T04:38:03;15.50;75.80
26254;DHT22;53339;51.378;0.094;2023-07-30T04:40:45;15.50;75.90
26254;DHT22;53339;51.378;0.094;2023-07-30T04:43:15;15.40;76.00
26254;DHT22;53339;51.378;0.094;2023-07-30T04:46:01;15.40;76.10
26254;DHT22;53339;51.378;0.094;2023-07-30T04:48:33;15.40;76.30
26254;DHT22;53339;51.378;0.094;2023-07-30T04:51:07;15.40;76.40
26254;DHT22;53339;51.378;0.094;2023-07-30T04:53:39;15.30;76.50
26254;DHT22;53339;51.378;0.094;2023-07-30T04:56:11;15.30;76.70
26254;DHT22;53339;51.378;0.094;2023-07-30T04:58:39;15.30;76.90
26254;DHT22;53339;51.378;0.094;2023-07-30T05:01:13;15.30;77.10
26254;DHT22;53339;51.378;0.094;2023-07-30T05:03:45;15.30;77.30
26254;DHT22;53339;51.378;0.094;2023-07-30T05:06:14;15.20;77.50
26254;DHT22;53339;51.378;0.094;2023-07-30T05:08:44;15.20;77.60
26254;DHT22;53339;51.378;0.094;2023-07-30T05:11:18;15.30;77.70
26254;DHT22;53339;51.378;0.094;2023-07-30T05:13:49;15.20;77.80
26254;DHT22;53339;51.378;0.094;2023-07-30T05:16:18;15.30;77.80
26254;DHT22;53339;51.378;0.094;2023-07-30T05:18:47;15.30;77.90
26254;DHT22;53339;51.378;0.094;2023-07-30T05:21:18;15.20;78.00
26254;DHT22;53339;51.378;0.094;2023-07-30T05:23:46;15.20;78.00
26254;DHT22;53339;51.378;0.094;2023-07-30T05:26:14;15.30;78.00
26254;DHT22;53339;51.378;0.094;2023-07-30T05:28:50;15.30;78.00
26254;DHT22;53339;51.378;0.094;2023-07-30T05:31:20;15.40;77.90
26254;DHT22;53339;51.378;0.094;2023-07-30T05:33:48;15.40;77.90
26254;DHT22;53339;51.378;0.094;2023-07-30T05:36:21;15.40;77.80
26254;DHT22;53339;51.378;0.094;2023-07-30T05:38:50;15.40;77.90
26254;DHT22;53339;51.378;0.094;2023-07-30T05:41:23;15.40;77.90
26254;DHT22;53339;51.378;0.094;2023-07-30T05:43:51;15.60;78.00
26254;DHT22;53339;51.378;0.094;2023-07-30T05:46:21;15.70;77.90
26254;DHT22;53339;51.378;0.094;2023-07-30T05:48:49;15.70;77.80
26254;DHT22;53339;51.378;0.094;2023-07-30T05:51:18;15.90;77.70
26254;DHT22;53339;51.378;0.094;2023-07-30T05:53:46;16.10;77.50
26254;DHT22;53339;51.378;0.094;2023-07-30T05:56:15;16.10;77.00
26254;DHT22;53339;51.378;0.094;2023-07-30T05:58:46;16.20;76.40
26254;DHT22;53339;51.378;0.094;2023-07-30T06:01:15;16.20;76.10
26254;DHT22;53339;51.378;0.094;2023-07-30T06:03:44;16.20;76.40
26254;DHT22;53339;51.378;0.094;2023-07-30T06:06:13;16.20;75.80
26254;DHT22;53339;51.378;0.094;2023-07-30T06:08:44;16.20;75.90
26254;DHT22;53339;51.378;0.094;2023-07-30T06:11:14;16.20;75.90
26254;DHT22;53339;51.378;0.094;2023-07-30T06:13:47;16.30;75.70
26254;DHT22;53339;51.378;0.094;2023-07-30T06:16:19;16.30;75.60
26254;DHT22;53339;51.378;0.094;2023-07-30T06:18:49;16.30;75.60
26254;DHT22;53339;51.378;0.094;2023-07-30T06:21:22;16.30;75.60
26254;DHT22;53339;51.378;0.094;2023-07-30T06:23:56;16.30;75.60
26254;DHT22;53339;51.378;0.094;2023-07-30T06:26:37;16.30;75.80
26254;DHT22;53339;51.378;0.094;2023-07-30T06:29:10;16.40;76.00
26254;DHT22;53339;51.378;0.094;2023-07-30T06:31:38;16.50;75.60
26254;DHT22;53339;51.378;0.094;2023-07-30T06:34:08;16.60;75.10
26254;DHT22;53339;51.378;0.094;2023-07-30T06:36:47;16.70;75.00
26254;DHT22;53339;51.378;0.094;2023-07-30T06:39:17;16.70;75.00
26254;DHT22;53339;51.378;0.094;2023-07-30T06:42:17;16.70;74.90
26254;DHT22;53339;51.378;0.094;2023-07-30T06:44:53;16.70;74.60
26254;DHT22;53339;51.378;0.094;2023-07-30T06:47:25;16.70;74.90
26254;DHT22;53339;51.378;0.094;2023-07-30T06:49:57;16.80;74.40
26254;DHT22;53339;51.378;0.094;2023-07-30T06:52:27;16.90;74.60
26254;DHT22;53339;51.378;0.094;2023-07-30T06:54:59;16.90;74.80
26254;DHT22;53339;51.378;0.094;2023-07-30T06:57:32;17.00;74.50
26254;DHT22;53339;51.378;0.094;2023-07-30T07:00:09;17.10;73.60
26254;DHT22;53339;51.378;0.094;2023-07-30T07:02:44;17.10;73.60
26254;DHT22;53339;51.378;0.094;2023-07-30T07:05:17;17.10;73.50
26254;DHT22;53339;51.378;0.094;2023-07-30T07:07:45;17.10;73.50
26254;DHT22;53339;51.378;0.094;2023-07-30T07:10:15;17.10;73.50
26254;DHT22;53339;51.378;0.094;2023-07-30T07:12:51;17.20;73.70
26254;DHT22;53339;51.378;0.094;2023-07-30T07:15:22;17.20;73.70
26254;DHT22;53339;51.378;0.094;2023-07-30T07:17:52;17.30;73.40
26254;DHT22;53339;51.378;0.094;2023-07-30T07:20:24;17.30;72.80
26254;DHT22;53339;51.378;0.094;2023-07-30T07:22:56;17.30;72.40
26254;DHT22;53339;51.378;0.094;2023-07-30T07:25:27;17.40;72.30
26254;DHT22;53339;51.378;0.094;2023-07-30T07:27:57;17.40;72.60
26254;DHT22;53339;51.378;0.094;2023-07-30T07:30:30;17.40;72.60
26254;DHT22;53339;51.378;0.094;2023-07-30T07:33:00;17.40;72.50
26254;DHT22;53339;51.378;0.094;2023-07-30T07:35:30;17.40;72.60
26254;DHT22;53339;51.378;0.094;2023-07-30T07:38:07;17.40;72.70
26254;DHT22;53339;51.378;0.094;2023-07-30T07:40:37;17.40;72.30
26254;DHT22;53339;51.378;0.094;2023-07-30T07:43:08;17.50;72.10
26254;DHT22;53339;51.378;0.094;2023-07-30T07:45:52;17.50;72.20
26254;DHT22;53339;51.378;0.094;2023-07-30T07:48:21;17.60;71.70
26254;DHT22;53339;51.378;0.094;2023-07-30T07:50:51;17.70;70.50
26254;DHT22;53339;51.378;0.094;2023-07-30T07:53:34;17.70;70.40
26254;DHT22;53339;51.378;0.094;2023-07-30T07:56:09;17.70;69.70
26254;DHT22;53339;51.378;0.094;2023-07-30T07:58:38;17.70;69.60
26254;DHT22;53339;51.378;0.094;2023-07-30T08:01:10;17.80;69.50
26254;DHT22;53339;51.378;0.094;2023-07-30T08:03:45;17.90;69.60
26254;DHT22;53339;51.378;0.094;2023-07-30T08:06:13;18.00;68.60
26254;DHT22;53339;51.378;0.094;2023-07-30T08:08:45;18.10;67.40
26254;DHT22;53339;51.378;0.094;2023-07-30T08:11:17;18.20;67.50
26254;DHT22;53339;51.378;0.094;2023-07-30T08:13:50;18.20;67.80
26254;DHT22;53339;51.378;0.094;2023-07-30T08:16:25;18.30;67.20
26254;DHT22;53339;51.378;0.094;2023-07-30T08:18:56;18.40;66.60
26254;DHT22;53339;51.378;0.094;2023-07-30T08:21:27;18.40;66.30
26254;DHT22;53339;51.378;0.094;2023-07-30T08:23:57;18.60;64.50
26254;DHT22;53339;51.378;0.094;2023-07-30T08:26:26;18.50;62.10
26254;DHT22;53339;51.378;0.094;2023-07-30T08:29:02;18.60;62.70
26254;DHT22;53339;51.378;0.094;2023-07-30T08:31:31;18.50;62.00
26254;DHT22;53339;51.378;0.094;2023-07-30T08:34:00;18.60;62.30
26254;DHT22;53339;51.378;0.094;2023-07-30T08:36:39;18.70;62.30
26254;DHT22;53339;51.378;0.094;2023-07-30T08:39:09;18.80;61.30
26254;DHT22;53339;51.378;0.094;2023-07-30T08:41:41;18.90;61.50
26254;DHT22;53339;51.378;0.094;2023-07-30T08:44:12;19.00;60.40
26254;DHT22;53339;51.378;0.094;2023-07-30T08:46:43;19.00;61.30
26254;DHT22;53339;51.378;0.094;2023-07-30T08:49:14;19.10;61.40
26254;DHT22;53339;51.378;0.094;2023-07-30T08:51:44;19.10;60.10
26254;DHT22;53339;51.378;0.094;2023-07-30T08:54:20;19.20;60.20
26254;DHT22;53339;51.378;0.094;2023-07-30T08:57:04;19.30;59.80
26254;DHT22;53339;51.378;0.094;2023-07-30T08:59:49;19.30;59.20
26254;DHT22;53339;51.378;0.094;2023-07-30T09:02:47;19.30;59.50
26254;DHT22;53339;51.378;0.094;2023-07-30T09:05:17;19.30;59.60
26254;DHT22;53339;51.378;0.094;2023-07-30T09:07:57;19.20;59.60
26254;DHT22;53339;51.378;0.094;2023-07-30T09:10:27;19.10;59.30
26254;DHT22;53339;51.378;0.094;2023-07-30T09:13:10;19.20;59.40
26254;DHT22;53339;51.378;0.094;2023-07-30T09:15:39;19.20;59.50
26254;DHT22;53339;51.378;0.094;2023-07-30T09:18:17;19.20;59.30
26254;DHT22;53339;51.378;0.094;2023-07-30T09:20:47;19.10;59.70
26254;DHT22;53339;51.378;0.094;2023-07-30T09:23:22;19.10;60.40
26254;DHT22;53339;51.378;0.094;2023-07-30T09:26:05;19.20;60.00
26254;DHT22;53339;51.378;0.094;2023-07-30T09:28:34;19.30;59.40
26254;DHT22;53339;51.378;0.094;2023-07-30T09:31:11;19.50;57.40
26254;DHT22;53339;51.378;0.094;2023-07-30T09:33:49;19.70;57.30
26254;DHT22;53339;51.378;0.094;2023-07-30T09:36:21;19.80;56.90
26254;DHT22;53339;51.378;0.094;2023-07-30T09:38:50;19.90;57.20
26254;DHT22;53339;51.378;0.094;2023-07-30T09:41:20;20.10;57.50
26254;DHT22;53339;51.378;0.094;2023-07-30T09:43:58;20.00;57.40
26254;DHT22;53339;51.378;0.094;2023-07-30T09:46:30;20.10;56.90
26254;DHT22;53339;51.378;0.094;2023-07-30T09:49:04;20.10;55.10
26254;DHT22;53339;51.378;0.094;2023-07-30T09:51:45;20.20;56.00
26254;DHT22;53339;51.378;0.094;2023-07-30T09:54:15;20.30;55.70
26254;DHT22;53339;51.378;0.094;2023-07-30T09:56:50;20.50;55.10
26254;DHT22;53339;51.378;0.094;2023-07-30T09:59:24;20.60;54.80
26254;DHT22;53339;51.378;0.094;2023-07-30T10:01:53;20.60;55.50
26254;DHT22;53339;51.378;0.094;2023-07-30T10:04:29;20.60;55.60
26254;DHT22;53339;51.378;0.094;2023-07-30T10:07:08;20.60;55.60
26254;DHT22;53339;51.378;0.094;2023-07-30T10:09:50;20.50;55.80
26254;DHT22;53339;51.378;0.094;2023-07-30T10:12:29;20.60;55.40
26254;DHT22;53339;51.378;0.094;2023-07-30T10:15:06;20.50;55.30
26254;DHT22;53339;51.378;0.094;2023-07-30T10:17:41;20.40;55.40
26254;DHT22;53339;51.378;0.094;2023-07-30T10:20:38;20.50;56.10
26254;DHT22;53339;51.378;0.094;2023-07-30T10:23:07;20.60;56.00
26254;DHT22;53339;51.378;0.094;2023-07-30T10:25:49;20.80;56.20
26254;DHT22;53339;51.378;0.094;2023-07-30T10:31:07;20.80;56.40
26254;DHT22;53339;51.378;0.094;2023-07-30T10:33:53;20.70;57.30
26254;DHT22;53339;51.378;0.094;2023-07-30T10:36:51;20.60;57.50
26254;DHT22;53339;51.378;0.094;2023-07-30T10:39:28;20.40;58.70
26254;DHT22;53339;51.378;0.094;2023-07-30T10:42:02;20.40;59.60
26254;DHT22;53339;51.378;0.094;2023-07-30T10:44:37;20.40;59.00
26254;DHT22;53339;51.378;0.094;2023-07-30T10:47:15;20.40;59.20
26254;DHT22;53339;51.378;0.094;2023-07-30T10:50:02;20.40;59.90
26254;DHT22;53339;51.378;0.094;2023-07-30T10:52:32;20.30;59.50
26254;DHT22;53339;51.378;0.094;2023-07-30T10:55:02;20.20;59.90
26254;DHT22;53339;51.378;0.094;2023-07-30T10:57:31;20.20;60.30
26254;DHT22;53339;51.378;0.094;2023-07-30T11:00:03;20.10;60.70
26254;DHT22;53339;51.378;0.094;2023-07-30T11:02:55;20.00;60.60
26254;DHT22;53339;51.378;0.094;2023-07-30T11:05:24;20.10;60.90
26254;DHT22;53339;51.378;0.094;2023-07-30T11:07:57;20.20;61.30
26254;DHT22;53339;51.378;0.094;2023-07-30T11:10:28;20.20;61.70
26254;DHT22;53339;51.378;0.094;2023-07-30T11:12:57;20.20;61.80
26254;DHT22;53339;51.378;0.094;2023-07-30T11:15:25;20.20;61.70
26254;DHT22;53339;51.378;0.094;2023-07-30T11:17:54;20.20;61.60
26254;DHT22;53339;51.378;0.094;2023-07-30T11:20:26;20.30;62.00
26254;DHT22;53339;51.378;0.094;2023-07-30T11:22:56;20.40;61.80
26254;DHT22;53339;51.378;0.094;2023-07-30T11:25:26;20.60;62.40
26254;DHT22;53339;51.378;0.094;2023-07-30T11:28:01;20.70;62.20
26254;DHT22;53339;51.378;0.094;2023-07-30T11:30:54;20.80;62.20
26254;DHT22;53339;51.378;0.094;2023-07-30T11:33:30;20.80;62.50
26254;DHT22;53339;51.378;0.094;2023-07-30T11:36:08;20.80;63.20
26254;DHT22;53339;51.378;0.094;2023-07-30T11:38:41;20.80;63.40
26254;DHT22;53339;51.378;0.094;2023-07-30T11:41:23;20.90;63.40
26254;DHT22;53339;51.378;0.094;2023-07-30T11:43:57;20.70;64.10
26254;DHT22;53339;51.378;0.094;2023-07-30T11:46:34;20.50;65.40
26254;DHT22;53339;51.378;0.094;2023-07-30T11:49:14;20.40;66.40
26254;DHT22;53339;51.378;0.094;2023-07-30T11:51:44;20.20;67.50
26254;DHT22;53339;51.378;0.094;2023-07-30T11:54:20;20.20;67.90
26254;DHT22;53339;51.378;0.094;2023-07-30T11:56:55;20.00;68.60
26254;DHT22;53339;51.378;0.094;2023-07-30T11:59:24;19.80;69.30
26254;DHT22;53339;51.378;0.094;2023-07-30T12:01:53;19.70;69.90
26254;DHT22;53339;51.378;0.094;2023-07-30T12:04:24;19.70;70.40
26254;DHT22;53339;51.378;0.094;2023-07-30T12:06:57;19.60;70.80
26254;DHT22;53339;51.378;0.094;2023-07-30T12:09:35;19.50;71.60
26254;DHT22;53339;51.378;0.094;2023-07-30T12:12:05;19.50;72.10
26254;DHT22;53339;51.378;0.094;2023-07-30T12:17:22;19.30;72.90
26254;DHT22;53339;51.378;0.094;2023-07-30T12:19:51;19.30;73.10
26254;DHT22;53339;51.378;0.094;2023-07-30T12:22:23;19.20;73.50
26254;DHT22;53339;51.378;0.094;2023-07-30T12:24:55;19.20;73.90
26254;DHT22;53339;51.378;0.094;2023-07-30T12:30:06;19.30;74.10
26254;DHT22;53339;51.378;0.094;2023-07-30T12:32:34;19.40;74.20
26254;DHT22;53339;51.378;0.094;2023-07-30T12:35:03;19.60;73.50
26254;DHT22;53339;51.378;0.094;2023-07-30T12:37:33;19.60;73.20
26254;DHT22;53339;51.378;0.094;2023-07-30T12:40:06;19.70;73.40
26254;DHT22;53339;51.378;0.094;2023-07-30T12:42:36;19.60;73.50
26254;DHT22;53339;51.378;0.094;2023-07-30T12:45:07;19.60;73.90
26254;DHT22;53339;51.378;0.094;2023-07-30T12:47:36;19.60;74.30
26254;DHT22;53339;51.378;0.094;2023-07-30T12:50:10;19.50;74.80
26254;DHT22;53339;51.378;0.094;2023-07-30T12:52:39;19.40;75.10
26254;DHT22;53339;51.378;0.094;2023-07-30T12:55:11;19.40;75.40
26254;DHT22;53339;51.378;0.094;2023-07-30T12:57:40;19.30;75.80
26254;DHT22;53339;51.378;0.094;2023-07-30T13:00:09;19.30;75.90
26254;DHT22;53339;51.378;0.094;2023-07-30T13:02:41;19.20;76.40
26254;DHT22;53339;51.378;0.094;2023-07-30T13:05:11;19.20;76.70
26254;DHT22;53339;51.378;0.094;2023-07-30T13:07:49;19.20;76.90
26254;DHT22;53339;51.378;0.094;2023-07-30T13:10:18;19.20;76.80
26254;DHT22;53339;51.378;0.094;2023-07-30T13:12:46;19.30;76.90
26254;DHT22;53339;51.378;0.094;2023-07-30T13:15:17;19.40;76.90
26254;DHT22;53339;51.378;0.094;2023-07-30T13:17:49;19.40;76.80
26254;DHT22;53339;51.378;0.094;2023-07-30T13:20:24;19.50;76.70
26254;DHT22;53339;51.378;0.094;2023-07-30T13:22:53;19.50;76.50
26254;DHT22;53339;51.378;0.094;2023-07-30T13:25:22;19.60;76.40
26254;DHT22;53339;51.378;0.094;2023-07-30T13:27:59;19.60;76.50
26254;DHT22;53339;51.378;0.094;2023-07-30T13:30:29;19.60;76.40
26254;DHT22;53339;51.378;0.094;2023-07-30T13:33:04;19.60;76.20
26254;DHT22;53339;51.378;0.094;2023-07-30T13:35:33;19.50;76.30
26254;DHT22;53339;51.378;0.094;2023-07-30T13:38:05;19.50;76.70
26254;DHT22;53339;51.378;0.094;2023-07-30T13:40:33;19.50;76.80
26254;DHT22;53339;51.378;0.094;2023-07-30T13:43:11;19.60;76.80
26254;DHT22;53339;51.378;0.094;2023-07-30T13:45:46;19.60;76.90
26254;DHT22;53339;51.378;0.094;2023-07-30T13:48:17;19.70;77.00
26254;DHT22;53339;51.378;0.094;2023-07-30T13:50:46;19.70;77.00
26254;DHT22;53339;51.378;0.094;2023-07-30T13:53:20;19.60;76.90
26254;DHT22;53339;51.378;0.094;2023-07-30T13:55:55;19.50;77.20
26254;DHT22;53339;51.378;0.094;2023-07-30T13:58:27;19.30;77.70
26254;DHT22;53339;51.378;0.094;2023-07-30T14:00:55;19.10;78.20
26254;DHT22;53339;51.378;0.094;2023-07-30T14:03:24;19.10;78.50
26254;DHT22;53339;51.378;0.094;2023-07-30T14:05:53;19.00;78.90
26254;DHT22;53339;51.378;0.094;2023-07-30T14:08:21;19.00;79.10
26254;DHT22;53339;51.378;0.094;2023-07-30T14:10:49;19.10;79.40
26254;DHT22;53339;51.378;0.094;2023-07-30T14:13:18;19.10;79.40
26254;DHT22;53339;51.378;0.094;2023-07-30T14:15:46;19.20;79.40
26254;DHT22;53339;51.378;0.094;2023-07-30T14:18:22;19.20;79.30
26254;DHT22;53339;51.378;0.094;2023-07-30T14:20:52;19.10;79.30
26254;DHT22;53339;51.378;0.094;2023-07-30T14:23:20;19.10;79.60
26254;DHT22;53339;51.378;0.094;2023-07-30T14:25:51;18.90;80.00
26254;DHT22;53339;51.378;0.094;2023-07-30T14:28:33;18.80;80.40
26254;DHT22;53339;51.378;0.094;2023-07-30T14:31:10;18.80;80.80
26254;DHT22;53339;51.378;0.094;2023-07-30T14:33:39;18.70;81.20
26254;DHT22;53339;51.378;0.094;2023-07-30T14:36:14;18.60;81.50
26254;DHT22;53339;51.378;0.094;2023-07-30T14:38:44;18.50;82.00
26254;DHT22;53339;51.378;0.094;2023-07-30T14:41:13;18.40;82.50
26254;DHT22;53339;51.378;0.094;2023-07-30T14:43:45;18.40;83.00
26254;DHT22;53339;51.378;0.094;2023-07-30T14:46:14;18.30;83.40
26254;DHT22;53339;51.378;0.094;2023-07-30T14:48:48;18.30;83.90
26254;DHT22;53339;51.378;0.094;2023-07-30T14:51:20;18.30;84.20
26254;DHT22;53339;51.378;0.094;2023-07-30T14:53:55;18.30;84.70
26254;DHT22;53339;51.378;0.094;2023-07-30T14:56:27;18.40;85.00
26254;DHT22;53339;51.378;0.094;2023-07-30T14:58:55;18.40;85.30
26254;DHT22;53339;51.378;0.094;2023-07-30T15:01:29;18.40;85.50
26254;DHT22;53339;51.378;0.094;2023-07-30T15:04:04;18.40;85.70
26254;DHT22;53339;51.378;0.094;2023-07-30T15:06:35;18.40;85.90
26254;DHT22;53339;51.378;0.094;2023-07-30T15:09:14;18.40;86.10
26254;DHT22;53339;51.378;0.094;2023-07-30T15:11:46;18.40;86.20
26254;DHT22;53339;51.378;0.094;2023-07-30T15:14:17;18.30;86.20
26254;DHT22;53339;51.378;0.094;2023-07-30T15:16:47;18.30;86.40
26254;DHT22;53339;51.378;0.094;2023-07-30T15:19:20;18.30;86.50
26254;DHT22;53339;51.378;0.094;2023-07-30T15:21:48;18.30;86.60
26254;DHT22;53339;51.378;0.094;2023-07-30T15:24:17;18.30;86.60
26254;DHT22;53339;51.378;0.094;2023-07-30T15:26:46;18.30;86.70
26254;DHT22;53339;51.378;0.094;2023-07-30T15:29:19;18.30;86.70
26254;DHT22;53339;51.378;0.094;2023-07-30T15:31:49;18.30;86.90
26254;DHT22;53339;51.378;0.094;2023-07-30T15:34:20;18.30;86.70
26254;DHT22;53339;51.378;0.094;2023-07-30T15:36:53;18.20;86.80
26254;DHT22;53339;51.378;0.094;2023-07-30T15:39:28;18.20;86.90
26254;DHT22;53339;51.378;0.094;2023-07-30T15:41:58;18.20;87.20
26254;DHT22;53339;51.378;0.094;2023-07-30T15:44:33;18.20;87.10
26254;DHT22;53339;51.378;0.094;2023-07-30T15:47:02;18.20;87.10
26254;DHT22;53339;51.378;0.094;2023-07-30T15:49:38;18.10;87.10
26254;DHT22;53339;51.378;0.094;2023-07-30T15:52:15;18.10;87.20
26254;DHT22;53339;51.378;0.094;2023-07-30T15:54:47;18.00;87.30
26254;DHT22;53339;51.378;0.094;2023-07-30T15:57:15;17.90;87.40
26254;DHT22;53339;51.378;0.094;2023-07-30T15:59:49;17.90;87.60
26254;DHT22;53339;51.378;0.094;2023-07-30T16:02:19;17.90;87.80
26254;DHT22;53339;51.378;0.094;2023-07-30T16:05:09;17.80;87.90
26254;DHT22;53339;51.378;0.094;2023-07-30T16:07:44;17.80;88.00
26254;DHT22;53339;51.378;0.094;2023-07-30T16:10:17;17.80;88.10
26254;DHT22;53339;51.378;0.094;2023-07-30T16:12:45;17.80;88.20
26254;DHT22;53339;51.378;0.094;2023-07-30T16:15:16;17.80;88.30
26254;DHT22;53339;51.378;0.094;2023-07-30T16:17:47;17.90;88.40